sensor_id;sensor_type;location;lat;lon;timestamp;pressure;altitude;pressure_sealevel;temperature
20848;BMP180;10584;50.854;12.902;2023-10-09T00:00:19;98585.00;;;10.30
20848;BMP180;10584;50.854;12.902;2023-10-09T00:06:10;98564.00;;;10.30
20848;BMP180;10584;50.854;12.902;2023-10-09T00:11:35;98578.00;;;10.40
20848;BMP180;10584;50.854;12.902;2023-10-09T00:17:02;98558.00;;;10.50
20848;BMP180;10584;50.854;12.902;2023-10-09T00:22:33;98525.00;;;10.50
20848;BMP180;10584;50.854;12.902;2023-10-09T00:28:03;98495.00;;;10.50
20848;BMP180;10584;50.854;12.902;2023-10-09T00:33:24;98528.00;;;10.60
20848;BMP180;10584;50.854;12.902;2023-10-09T00:38:46;98492.00;;;10.70
20848;BMP180;10584;50.854;12.902;2023-10-09T00:44:11;98509.00;;;10.70
20848;BMP180;10584;50.854;12.902;2023-10-09T00:49:34;98501.00;;;10.70
20848;BMP180;10584;50.854;12.902;2023-10-09T00:54:55;98478.00;;;10.70
20848;BMP180;10584;50.854;12.902;2023-10-09T01:00:22;98472.00;;;10.80
20848;BMP180;10584;50.854;12.902;2023-10-09T01:06:01;98460.00;;;10.80
20848;BMP180;10584;50.854;12.902;2023-10-09T01:11:32;98452.00;;;10.80
20848;BMP180;10584;50.854;12.902;2023-10-09T01:16:55;98450.00;;;10.90
20848;BMP180;10584;50.854;12.902;2023-10-09T01:22:18;98435.00;;;11.00
20848;BMP180;10584;50.854;12.902;2023-10-09T01:27:42;98425.00;;;11.00
20848;BMP180;10584;50.854;12.902;2023-10-09T01:33:05;98412.00;;;11.10
20848;BMP180;10584;50.854;12.902;2023-10-09T01:38:33;98412.00;;;11.10
20848;BMP180;10584;50.854;12.902;2023-10-09T01:44:08;98410.00;;;11.20
20848;BMP180;10584;50.854;12.902;2023-10-09T01:49:35;98400.00;;;11.20
20848;BMP180;10584;50.854;12.902;2023-10-09T01:55:03;98394.00;;;11.30
20848;BMP180;10584;50.854;12.902;2023-10-09T02:00:44;98402.00;;;11.40
20848;BMP180;10584;50.854;12.902;2023-10-09T02:06:11;98381.00;;;11.40
20848;BMP180;10584;50.854;12.902;2023-10-09T02:11:46;98362.00;;;11.40
20848;BMP180;10584;50.854;12.902;2023-10-09T02:17:08;98359.00;;;11.50
20848;BMP180;10584;50.854;12.902;2023-10-09T02:22:49;98346.00;;;11.50
20848;BMP180;10584;50.854;12.902;2023-10-09T02:28:14;98334.00;;;11.50
20848;BMP180;10584;50.854;12.902;2023-10-09T02:33:41;98334.00;;;11.50
20848;BMP180;10584;50.854;12.902;2023-10-09T02:39:03;98325.00;;;11.50
20848;BMP180;10584;50.854;12.902;2023-10-09T02:44:27;98308.00;;;11.50
20848;BMP180;10584;50.854;12.902;2023-10-09T02:49:53;98290.00;;;11.50
20848;BMP180;10584;50.854;12.902;2023-10-09T02:55:21;98288.00;;;11.60
20848;BMP180;10584;50.854;12.902;2023-10-09T03:00:47;98264.00;;;11.60
20848;BMP180;10584;50.854;12.902;2023-10-09T03:06:10;98240.00;;;11.70
20848;BMP180;10584;50.854;12.902;2023-10-09T03:11:33;98247.00;;;11.80
20848;BMP180;10584;50.854;12.902;2023-10-09T03:16:57;98240.00;;;11.90
20848;BMP180;10584;50.854;12.902;2023-10-09T03:22:19;98242.00;;;12.00
20848;BMP180;10584;50.854;12.902;2023-10-09T03:27:41;98219.00;;;12.10
20848;BMP180;10584;50.854;12.902;2023-10-09T03:33:06;98226.00;;;12.20
20848;BMP180;10584;50.854;12.902;2023-10-09T03:38:28;98216.00;;;12.30
20848;BMP180;10584;50.854;12.902;2023-10-09T03:43:55;98228.00;;;12.50
20848;BMP180;10584;50.854;12.902;2023-10-09T03:49:17;98235.00;;;12.60
20848;BMP180;10584;50.854;12.902;2023-10-09T03:54:47;98222.00;;;12.80
20848;BMP180;10584;50.854;12.902;2023-10-09T04:00:11;98222.00;;;13.00
20848;BMP180;10584;50.854;12.902;2023-10-09T04:05:49;98220.00;;;13.20
20848;BMP180;10584;50.854;12.902;2023-10-09T04:11:14;98234.00;;;13.40
20848;BMP180;10584;50.854;12.902;2023-10-09T04:16:38;98218.00;;;13.50
20848;BMP180;10584;50.854;12.902;2023-10-09T04:22:12;98223.00;;;13.60
20848;BMP180;10584;50.854;12.902;2023-10-09T04:27:47;98212.00;;;13.70
20848;BMP180;10584;50.854;12.902;2023-10-09T04:33:09;98221.00;;;13.80
20848;BMP180;10584;50.854;12.902;2023-10-09T04:38:53;98214.00;;;13.80
20848;BMP180;10584;50.854;12.902;2023-10-09T04:44:36;98208.00;;;13.90
20848;BMP180;10584;50.854;12.902;2023-10-09T04:49:58;98183.00;;;14.00
20848;BMP180;10584;50.854;12.902;2023-10-09T04:55:22;98173.00;;;14.00
20848;BMP180;10584;50.854;12.902;2023-10-09T05:00:46;98179.00;;;14.00
20848;BMP180;10584;50.854;12.902;2023-10-09T05:06:08;98171.00;;;14.00
20848;BMP180;10584;50.854;12.902;2023-10-09T05:11:42;98175.00;;;14.00
20848;BMP180;10584;50.854;12.902;2023-10-09T05:17:12;98166.00;;;14.00
20848;BMP180;10584;50.854;12.902;2023-10-09T05:22:37;98176.00;;;13.90
20848;BMP180;10584;50.854;12.902;2023-10-09T05:27:59;98171.00;;;14.00
20848;BMP180;10584;50.854;12.902;2023-10-09T05:33:40;98157.00;;;13.80
20848;BMP180;10584;50.854;12.902;2023-10-09T05:39:06;98156.00;;;13.90
20848;BMP180;10584;50.854;12.902;2023-10-09T05:44:51;98172.00;;;13.80
20848;BMP180;10584;50.854;12.902;2023-10-09T05:50:32;98175.00;;;13.80
20848;BMP180;10584;50.854;12.902;2023-10-09T05:55:56;98179.00;;;13.80
20848;BMP180;10584;50.854;12.902;2023-10-09T06:01:36;98184.00;;;13.70
20848;BMP180;10584;50.854;12.902;2023-10-09T06:07:16;98176.00;;;13.80
20848;BMP180;10584;50.854;12.902;2023-10-09T06:12:44;98186.00;;;13.80
20848;BMP180;10584;50.854;12.902;2023-10-09T06:18:09;98186.00;;;13.80
20848;BMP180;10584;50.854;12.902;2023-10-09T06:23:56;98187.00;;;13.80
20848;BMP180;10584;50.854;12.902;2023-10-09T06:29:37;98195.00;;;13.80
20848;BMP180;10584;50.854;12.902;2023-10-09T06:35:10;98191.00;;;13.90
20848;BMP180;10584;50.854;12.902;2023-10-09T06:40:39;98207.00;;;13.80
20848;BMP180;10584;50.854;12.902;2023-10-09T06:46:15;98217.00;;;13.80
20848;BMP180;10584;50.854;12.902;2023-10-09T06:51:43;98218.00;;;13.80
20848;BMP180;10584;50.854;12.902;2023-10-09T06:57:04;98216.00;;;13.80
20848;BMP180;10584;50.854;12.902;2023-10-09T07:02:34;98235.00;;;13.90
20848;BMP180;10584;50.854;12.902;2023-10-09T07:08:07;98249.00;;;13.90
20848;BMP180;10584;50.854;12.902;2023-10-09T07:13:49;98249.00;;;13.90
20848;BMP180;10584;50.854;12.902;2023-10-09T07:19:17;98248.00;;;13.90
20848;BMP180;10584;50.854;12.902;2023-10-09T07:25:07;98267.00;;;13.90
20848;BMP180;10584;50.854;12.902;2023-10-09T07:30:52;98256.00;;;14.10
20848;BMP180;10584;50.854;12.902;2023-10-09T07:36:19;98274.00;;;14.00
20848;BMP180;10584;50.854;12.902;2023-10-09T07:42:01;98278.00;;;14.10
20848;BMP180;10584;50.854;12.902;2023-10-09T07:47:37;98287.00;;;14.10
20848;BMP180;10584;50.854;12.902;2023-10-09T07:53:25;98290.00;;;13.90
20848;BMP180;10584;50.854;12.902;2023-10-09T07:58:52;98290.00;;;14.00
20848;BMP180;10584;50.854;12.902;2023-10-09T08:04:13;98300.00;;;14.00
20848;BMP180;10584;50.854;12.902;2023-10-09T08:09:36;98283.00;;;13.90
20848;BMP180;10584;50.854;12.902;2023-10-09T08:15:10;98308.00;;;13.80
20848;BMP180;10584;50.854;12.902;2023-10-09T08:20:43;98308.00;;;13.90
20848;BMP180;10584;50.854;12.902;2023-10-09T08:26:19;98323.00;;;13.70
20848;BMP180;10584;50.854;12.902;2023-10-09T08:31:50;98342.00;;;13.80
20848;BMP180;10584;50.854;12.902;2023-10-09T08:37:19;98322.00;;;13.70
20848;BMP180;10584;50.854;12.902;2023-10-09T08:42:41;98314.00;;;13.80
20848;BMP180;10584;50.854;12.902;2023-10-09T08:48:04;98319.00;;;13.80
20848;BMP180;10584;50.854;12.902;2023-10-09T08:53:26;98333.00;;;13.90
20848;BMP180;10584;50.854;12.902;2023-10-09T08:58:56;98338.00;;;13.80
20848;BMP180;10584;50.854;12.902;2023-10-09T09:04:37;98336.00;;;13.80
20848;BMP180;10584;50.854;12.902;2023-10-09T09:10:02;98335.00;;;13.80
20848;BMP180;10584;50.854;12.902;2023-10-09T09:15:39;98326.00;;;13.90
20848;BMP180;10584;50.854;12.902;2023-10-09T09:21:01;98319.00;;;13.90
20848;BMP180;10584;50.854;12.902;2023-10-09T09:26:41;98318.00;;;14.10
20848;BMP180;10584;50.854;12.902;2023-10-09T09:32:08;98310.00;;;14.20
20848;BMP180;10584;50.854;12.902;2023-10-09T09:37:44;98317.00;;;14.10
20848;BMP180;10584;50.854;12.902;2023-10-09T09:43:14;98317.00;;;14.10
20848;BMP180;10584;50.854;12.902;2023-10-09T09:48:43;98326.00;;;14.10
20848;BMP180;10584;50.854;12.902;2023-10-09T09:54:06;98314.00;;;14.10
20848;BMP180;10584;50.854;12.902;2023-10-09T09:59:31;98311.00;;;14.20
20848;BMP180;10584;50.854;12.902;2023-10-09T10:04:58;98311.00;;;14.20
20848;BMP180;10584;50.854;12.902;2023-10-09T10:10:40;98284.00;;;14.10
20848;BMP180;10584;50.854;12.902;2023-10-09T10:16:19;98286.00;;;14.20
20848;BMP180;10584;50.854;12.902;2023-10-09T10:21:42;98294.00;;;14.10
20848;BMP180;10584;50.854;12.902;2023-10-09T10:32:59;98255.00;;;14.10
20848;BMP180;10584;50.854;12.902;2023-10-09T10:38:34;98256.00;;;14.10
20848;BMP180;10584;50.854;12.902;2023-10-09T10:43:58;98235.00;;;14.10
20848;BMP180;10584;50.854;12.902;2023-10-09T10:49:23;98244.00;;;14.00
20848;BMP180;10584;50.854;12.902;2023-10-09T10:54:46;98245.00;;;14.00
20848;BMP180;10584;50.854;12.902;2023-10-09T11:00:12;98239.00;;;14.10
20848;BMP180;10584;50.854;12.902;2023-10-09T11:05:36;98228.00;;;14.10
20848;BMP180;10584;50.854;12.902;2023-10-09T11:11:13;98214.00;;;14.10
20848;BMP180;10584;50.854;12.902;2023-10-09T11:16:41;98199.00;;;14.20
20848;BMP180;10584;50.854;12.902;2023-10-09T11:22:05;98176.00;;;14.10
20848;BMP180;10584;50.854;12.902;2023-10-09T11:27:29;98182.00;;;14.20
20848;BMP180;10584;50.854;12.902;2023-10-09T11:33:04;98189.00;;;14.30
20848;BMP180;10584;50.854;12.902;2023-10-09T11:38:26;98182.00;;;14.40
20848;BMP180;10584;50.854;12.902;2023-10-09T11:43:56;98175.00;;;14.30
20848;BMP180;10584;50.854;12.902;2023-10-09T11:49:21;98181.00;;;14.30
20848;BMP180;10584;50.854;12.902;2023-10-09T11:54:42;98180.00;;;14.30
20848;BMP180;10584;50.854;12.902;2023-10-09T12:00:06;98175.00;;;14.30
20848;BMP180;10584;50.854;12.902;2023-10-09T12:05:51;98182.00;;;14.40
20848;BMP180;10584;50.854;12.902;2023-10-09T12:11:15;98172.00;;;14.20
20848;BMP180;10584;50.854;12.902;2023-10-09T12:16:44;98179.00;;;14.30
20848;BMP180;10584;50.854;12.902;2023-10-09T12:22:11;98183.00;;;14.20
20848;BMP180;10584;50.854;12.902;2023-10-09T12:27:37;98190.00;;;14.30
20848;BMP180;10584;50.854;12.902;2023-10-09T12:32:59;98198.00;;;14.20
20848;BMP180;10584;50.854;12.902;2023-10-09T12:38:21;98190.00;;;14.10
20848;BMP180;10584;50.854;12.902;2023-10-09T12:43:44;98196.00;;;14.10
20848;BMP180;10584;50.854;12.902;2023-10-09T12:49:05;98185.00;;;14.10
20848;BMP180;10584;50.854;12.902;2023-10-09T12:54:27;98196.00;;;14.10
20848;BMP180;10584;50.854;12.902;2023-10-09T12:59:49;98200.00;;;14.20
20848;BMP180;10584;50.854;12.902;2023-10-09T13:05:11;98201.00;;;14.20
20848;BMP180;10584;50.854;12.902;2023-10-09T13:10:53;98197.00;;;14.10
20848;BMP180;10584;50.854;12.902;2023-10-09T13:16:22;98203.00;;;14.20
20848;BMP180;10584;50.854;12.902;2023-10-09T13:21:47;98208.00;;;14.10
20848;BMP180;10584;50.854;12.902;2023-10-09T13:27:10;98203.00;;;14.10
20848;BMP180;10584;50.854;12.902;2023-10-09T13:32:32;98216.00;;;14.20
20848;BMP180;10584;50.854;12.902;2023-10-09T13:37:57;98217.00;;;14.20
20848;BMP180;10584;50.854;12.902;2023-10-09T13:43:19;98212.00;;;14.20
20848;BMP180;10584;50.854;12.902;2023-10-09T13:48:43;98198.00;;;14.30
20848;BMP180;10584;50.854;12.902;2023-10-09T13:54:06;98193.00;;;14.20
20848;BMP180;10584;50.854;12.902;2023-10-09T13:59:28;98192.00;;;14.20
20848;BMP180;10584;50.854;12.902;2023-10-09T14:04:49;98205.00;;;14.20
20848;BMP180;10584;50.854;12.902;2023-10-09T14:10:13;98199.00;;;14.20
20848;BMP180;10584;50.854;12.902;2023-10-09T14:15:46;98195.00;;;14.30
20848;BMP180;10584;50.854;12.902;2023-10-09T14:21:10;98199.00;;;14.30
20848;BMP180;10584;50.854;12.902;2023-10-09T14:26:37;98194.00;;;14.30
20848;BMP180;10584;50.854;12.902;2023-10-09T14:31:59;98186.00;;;14.40
20848;BMP180;10584;50.854;12.902;2023-10-09T14:37:24;98197.00;;;14.40
20848;BMP180;10584;50.854;12.902;2023-10-09T14:42:46;98202.00;;;14.30
20848;BMP180;10584;50.854;12.902;2023-10-09T14:48:07;98202.00;;;14.30
20848;BMP180;10584;50.854;12.902;2023-10-09T14:53:28;98205.00;;;14.40
20848;BMP180;10584;50.854;12.902;2023-10-09T14:58:50;98198.00;;;14.40
20848;BMP180;10584;50.854;12.902;2023-10-09T15:04:12;98187.00;;;14.20
20848;BMP180;10584;50.854;12.902;2023-10-09T15:09:36;98193.00;;;14.30
20848;BMP180;10584;50.854;12.902;2023-10-09T15:14:58;98194.00;;;14.30
20848;BMP180;10584;50.854;12.902;2023-10-09T15:20:22;98207.00;;;14.20
20848;BMP180;10584;50.854;12.902;2023-10-09T15:25:43;98212.00;;;14.30
20848;BMP180;10584;50.854;12.902;2023-10-09T15:31:09;98221.00;;;14.10
20848;BMP180;10584;50.854;12.902;2023-10-09T15:36:33;98213.00;;;14.20
20848;BMP180;10584;50.854;12.902;2023-10-09T15:41:54;98218.00;;;14.10
20848;BMP180;10584;50.854;12.902;2023-10-09T15:47:17;98218.00;;;14.20
20848;BMP180;10584;50.854;12.902;2023-10-09T15:52:40;98224.00;;;14.10
20848;BMP180;10584;50.854;12.902;2023-10-09T15:58:02;98224.00;;;14.10
20848;BMP180;10584;50.854;12.902;2023-10-09T16:03:23;98229.00;;;14.10
20848;BMP180;10584;50.854;12.902;2023-10-09T16:08:47;98233.00;;;14.00
20848;BMP180;10584;50.854;12.902;2023-10-09T16:14:09;98239.00;;;14.10
20848;BMP180;10584;50.854;12.902;2023-10-09T16:19:30;98247.00;;;13.90
20848;BMP180;10584;50.854;12.902;2023-10-09T16:25:00;98246.00;;;14.00
20848;BMP180;10584;50.854;12.902;2023-10-09T16:30:22;98257.00;;;13.90
20848;BMP180;10584;50.854;12.902;2023-10-09T16:35:44;98265.00;;;14.00
20848;BMP180;10584;50.854;12.902;2023-10-09T16:41:06;98263.00;;;13.90
20848;BMP180;10584;50.854;12.902;2023-10-09T16:46:30;98264.00;;;13.90
20848;BMP180;10584;50.854;12.902;2023-10-09T16:51:53;98263.00;;;14.00
20848;BMP180;10584;50.854;12.902;2023-10-09T16:57:17;98282.00;;;14.00
20848;BMP180;10584;50.854;12.902;2023-10-09T17:02:40;98279.00;;;14.00
20848;BMP180;10584;50.854;12.902;2023-10-09T17:08:05;98275.00;;;14.00
20848;BMP180;10584;50.854;12.902;2023-10-09T17:13:33;98278.00;;;14.00
20848;BMP180;10584;50.854;12.902;2023-10-09T17:18:54;98284.00;;;14.00
20848;BMP180;10584;50.854;12.902;2023-10-09T17:24:18;98285.00;;;14.00
20848;BMP180;10584;50.854;12.902;2023-10-09T17:29:41;98284.00;;;14.00
20848;BMP180;10584;50.854;12.902;2023-10-09T17:35:06;98280.00;;;14.00
20848;BMP180;10584;50.854;12.902;2023-10-09T17:40:31;98283.00;;;14.00
20848;BMP180;10584;50.854;12.902;2023-10-09T17:45:53;98293.00;;;14.10
20848;BMP180;10584;50.854;12.902;2023-10-09T17:51:17;98285.00;;;14.10
20848;BMP180;10584;50.854;12.902;2023-10-09T17:56:41;98296.00;;;14.10
20848;BMP180;10584;50.854;12.902;2023-10-09T18:02:03;98300.00;;;14.20
20848;BMP180;10584;50.854;12.902;2023-10-09T18:07:25;98302.00;;;14.20
20848;BMP180;10584;50.854;12.902;2023-10-09T18:12:48;98297.00;;;14.20
20848;BMP180;10584;50.854;12.902;2023-10-09T18:18:10;98309.00;;;14.30
20848;BMP180;10584;50.854;12.902;2023-10-09T18:23:34;98303.00;;;14.30
20848;BMP180;10584;50.854;12.902;2023-10-09T18:28:57;98303.00;;;14.40
20848;BMP180;10584;50.854;12.902;2023-10-09T18:34:19;98305.00;;;14.40
20848;BMP180;10584;50.854;12.902;2023-10-09T18:39:42;98300.00;;;14.40
20848;BMP180;10584;50.854;12.902;2023-10-09T18:45:06;98299.00;;;14.40
20848;BMP180;10584;50.854;12.902;2023-10-09T18:50:28;98299.00;;;14.40
20848;BMP180;10584;50.854;12.902;2023-10-09T18:55:51;98305.00;;;14.50
20848;BMP180;10584;50.854;12.902;2023-10-09T19:01:12;98302.00;;;14.60
20848;BMP180;10584;50.854;12.902;2023-10-09T19:06:37;98298.00;;;14.40
20848;BMP180;10584;50.854;12.902;2023-10-09T19:11:58;98304.00;;;14.60
20848;BMP180;10584;50.854;12.902;2023-10-09T19:17:20;98304.00;;;14.50
20848;BMP180;10584;50.854;12.902;2023-10-09T19:22:42;98307.00;;;14.60
20848;BMP180;10584;50.854;12.902;2023-10-09T19:28:05;98313.00;;;14.60
20848;BMP180;10584;50.854;12.902;2023-10-09T19:33:26;98314.00;;;14.50
20848;BMP180;10584;50.854;12.902;2023-10-09T19:38:48;98318.00;;;14.60
20848;BMP180;10584;50.854;12.902;2023-10-09T19:44:12;98315.00;;;14.60
20848;BMP180;10584;50.854;12.902;2023-10-09T19:49:34;98314.00;;;14.50
20848;BMP180;10584;50.854;12.902;2023-10-09T19:54:59;98319.00;;;14.60
20848;BMP180;10584;50.854;12.902;2023-10-09T20:00:20;98329.00;;;14.60
20848;BMP180;10584;50.854;12.902;2023-10-09T20:05:43;98332.00;;;14.60
20848;BMP180;10584;50.854;12.902;2023-10-09T20:11:11;98337.00;;;14.60
20848;BMP180;10584;50.854;12.902;2023-10-09T20:16:34;98337.00;;;14.70
20848;BMP180;10584;50.854;12.902;2023-10-09T20:21:57;98343.00;;;14.70
20848;BMP180;10584;50.854;12.902;2023-10-09T20:27:19;98342.00;;;14.60
20848;BMP180;10584;50.854;12.902;2023-10-09T20:32:41;98351.00;;;14.70
20848;BMP180;10584;50.854;12.902;2023-10-09T20:38:03;98355.00;;;14.70
20848;BMP180;10584;50.854;12.902;2023-10-09T20:43:24;98358.00;;;14.80
20848;BMP180;10584;50.854;12.902;2023-10-09T20:48:49;98360.00;;;14.90
20848;BMP180;10584;50.854;12.902;2023-10-09T20:54:10;98369.00;;;14.80
20848;BMP180;10584;50.854;12.902;2023-10-09T20:59:34;98381.00;;;14.80
20848;BMP180;10584;50.854;12.902;2023-10-09T21:04:56;98369.00;;;14.80
20848;BMP180;10584;50.854;12.902;2023-10-09T21:10:18;98376.00;;;14.90
20848;BMP180;10584;50.854;12.902;2023-10-09T21:15:41;98384.00;;;14.80
20848;BMP180;10584;50.854;12.902;2023-10-09T21:21:02;98378.00;;;14.90
20848;BMP180;10584;50.854;12.902;2023-10-09T21:26:23;98386.00;;;14.90
20848;BMP180;10584;50.854;12.902;2023-10-09T21:31:45;98381.00;;;14.80
20848;BMP180;10584;50.854;12.902;2023-10-09T21:37:07;98385.00;;;14.90
20848;BMP180;10584;50.854;12.902;2023-10-09T21:42:31;98386.00;;;14.90
20848;BMP180;10584;50.854;12.902;2023-10-09T21:47:53;98385.00;;;14.90
20848;BMP180;10584;50.854;12.902;2023-10-09T21:53:17;98389.00;;;14.90
20848;BMP180;10584;50.854;12.902;2023-10-09T21:58:39;98387.00;;;14.90
20848;BMP180;10584;50.854;12.902;2023-10-09T22:04:00;98398.00;;;15.00
20848;BMP180;10584;50.854;12.902;2023-10-09T22:09:22;98386.00;;;14.90
20848;BMP180;10584;50.854;12.902;2023-10-09T22:14:43;98389.00;;;14.90
20848;BMP180;10584;50.854;12.902;2023-10-09T22:20:06;98393.00;;;14.80
20848;BMP180;10584;50.854;12.902;2023-10-09T22:25:27;98391.00;;;14.80
20848;BMP180;10584;50.854;12.902;2023-10-09T22:30:51;98399.00;;;14.90
20848;BMP180;10584;50.854;12.902;2023-10-09T22:36:18;98403.00;;;14.80
20848;BMP180;10584;50.854;12.902;2023-10-09T22:42:09;98407.00;;;14.80
20848;BMP180;10584;50.854;12.902;2023-10-09T22:47:31;98404.00;;;14.90
20848;BMP180;10584;50.854;12.902;2023-10-09T22:52:54;98404.00;;;14.80
20848;BMP180;10584;50.854;12.902;2023-10-09T22:58:16;98408.00;;;14.70
20848;BMP180;10584;50.854;12.902;2023-10-09T23:03:38;98414.00;;;14.80
20848;BMP180;10584;50.854;12.902;2023-10-09T23:09:05;98412.00;;;14.80
20848;BMP180;10584;50.854;12.902;2023-10-09T23:14:33;98412.00;;;14.90
20848;BMP180;10584;50.854;12.902;2023-10-09T23:19:54;98413.00;;;14.80
20848;BMP180;10584;50.854;12.902;2023-10-09T23:25:20;98418.00;;;14.90
20848;BMP180;10584;50.854;12.902;2023-10-09T23:31:00;98417.00;;;14.80
20848;BMP180;10584;50.854;12.902;2023-10-09T23:36:26;98423.00;;;14.90
20848;BMP180;10584;50.854;12.902;2023-10-09T23:41:48;98416.00;;;14.80
20848;BMP180;10584;50.854;12.902;2023-10-09T23:47:22;98427.00;;;14.80
20848;BMP180;10584;50.854;12.902;2023-10-09T23:52:47;98424.00;;;14.90
20848;BMP180;10584;50.854;12.902;2023-10-09T23:58:14;98438.00;;;14.70
